sensor_id;sensor_type;location;lat;lon;timestamp;temperature;humidity
27492;DHT22;14927;51.210;6.838;2023-07-20T00:00:57;23.30;51.80
27492;DHT22;14927;51.210;6.838;2023-07-20T00:03:42;23.30;52.00
27492;DHT22;14927;51.210;6.838;2023-07-20T00:06:27;23.30;52.10
27492;DHT22;14927;51.210;6.838;2023-07-20T00:09:12;23.20;52.20
27492;DHT22;14927;51.210;6.838;2023-07-20T00:11:57;23.20;52.30
27492;DHT22;14927;51.210;6.838;2023-07-20T00:14:44;23.00;52.30
27492;DHT22;14927;51.210;6.838;2023-07-20T00:17:29;23.10;52.40
27492;DHT22;14927;51.210;6.838;2023-07-20T00:20:13;23.10;52.50
27492;DHT22;14927;51.210;6.838;2023-07-20T00:22:58;23.10;52.60
27492;DHT22;14927;51.210;6.838;2023-07-20T00:25:43;23.10;52.70
27492;DHT22;14927;51.210;6.838;2023-07-20T00:28:28;23.00;52.90
27492;DHT22;14927;51.210;6.838;2023-07-20T00:31:12;23.10;53.10
27492;DHT22;14927;51.210;6.838;2023-07-20T00:33:57;23.00;53.10
27492;DHT22;14927;51.210;6.838;2023-07-20T00:36:42;23.00;53.10
27492;DHT22;14927;51.210;6.838;2023-07-20T00:39:26;23.00;53.20
27492;DHT22;14927;51.210;6.838;2023-07-20T00:42:11;22.90;53.20
27492;DHT22;14927;51.210;6.838;2023-07-20T00:44:56;22.90;53.20
27492;DHT22;14927;51.210;6.838;2023-07-20T00:47:41;22.90;53.20
27492;DHT22;14927;51.210;6.838;2023-07-20T00:50:26;22.90;53.30
27492;DHT22;14927;51.210;6.838;2023-07-20T00:53:12;22.90;53.40
27492;DHT22;14927;51.210;6.838;2023-07-20T00:55:57;22.90;53.40
27492;DHT22;14927;51.210;6.838;2023-07-20T00:58:42;22.90;53.50
27492;DHT22;14927;51.210;6.838;2023-07-20T01:01:30;22.80;53.50
27492;DHT22;14927;51.210;6.838;2023-07-20T01:04:14;22.90;53.70
27492;DHT22;14927;51.210;6.838;2023-07-20T01:07:14;22.80;53.60
27492;DHT22;14927;51.210;6.838;2023-07-20T01:10:14;22.80;54.20
27492;DHT22;14927;51.210;6.838;2023-07-20T01:13:14;22.80;54.40
27492;DHT22;14927;51.210;6.838;2023-07-20T01:16:02;22.80;54.20
27492;DHT22;14927;51.210;6.838;2023-07-20T01:18:47;22.70;54.50
27492;DHT22;14927;51.210;6.838;2023-07-20T01:21:40;22.70;54.60
27492;DHT22;14927;51.210;6.838;2023-07-20T01:25:14;22.70;54.70
27492;DHT22;14927;51.210;6.838;2023-07-20T01:31:41;22.70;55.20
27492;DHT22;14927;51.210;6.838;2023-07-20T01:34:26;22.70;54.90
27492;DHT22;14927;51.210;6.838;2023-07-20T01:37:11;22.60;55.20
27492;DHT22;14927;51.210;6.838;2023-07-20T01:39:56;22.60;55.40
27492;DHT22;14927;51.210;6.838;2023-07-20T01:42:48;22.60;55.50
27492;DHT22;14927;51.210;6.838;2023-07-20T01:45:33;22.60;56.20
27492;DHT22;14927;51.210;6.838;2023-07-20T01:48:17;22.60;56.00
27492;DHT22;14927;51.210;6.838;2023-07-20T01:51:02;22.50;55.90
27492;DHT22;14927;51.210;6.838;2023-07-20T01:53:47;22.50;55.90
27492;DHT22;14927;51.210;6.838;2023-07-20T01:56:31;22.50;56.00
27492;DHT22;14927;51.210;6.838;2023-07-20T01:59:16;22.50;56.10
27492;DHT22;14927;51.210;6.838;2023-07-20T02:02:01;22.50;56.10
27492;DHT22;14927;51.210;6.838;2023-07-20T02:04:46;22.40;56.10
27492;DHT22;14927;51.210;6.838;2023-07-20T02:07:30;22.40;56.30
27492;DHT22;14927;51.210;6.838;2023-07-20T02:10:15;22.40;56.30
27492;DHT22;14927;51.210;6.838;2023-07-20T02:13:00;22.40;56.30
27492;DHT22;14927;51.210;6.838;2023-07-20T02:15:45;22.40;56.30
27492;DHT22;14927;51.210;6.838;2023-07-20T02:18:31;22.40;56.40
27492;DHT22;14927;51.210;6.838;2023-07-20T02:21:16;22.40;56.50
27492;DHT22;14927;51.210;6.838;2023-07-20T02:24:00;22.40;56.50
27492;DHT22;14927;51.210;6.838;2023-07-20T02:26:45;22.30;56.60
27492;DHT22;14927;51.210;6.838;2023-07-20T02:29:30;22.30;56.60
27492;DHT22;14927;51.210;6.838;2023-07-20T02:32:14;22.30;56.70
27492;DHT22;14927;51.210;6.838;2023-07-20T02:34:59;22.30;56.80
27492;DHT22;14927;51.210;6.838;2023-07-20T02:37:44;22.30;56.90
27492;DHT22;14927;51.210;6.838;2023-07-20T02:40:29;22.30;57.00
27492;DHT22;14927;51.210;6.838;2023-07-20T02:43:14;22.30;57.00
27492;DHT22;14927;51.210;6.838;2023-07-20T02:45:58;22.20;57.00
27492;DHT22;14927;51.210;6.838;2023-07-20T02:48:43;22.20;57.00
27492;DHT22;14927;51.210;6.838;2023-07-20T02:51:28;22.20;57.00
27492;DHT22;14927;51.210;6.838;2023-07-20T02:54:13;22.20;57.10
27492;DHT22;14927;51.210;6.838;2023-07-20T02:56:57;22.20;57.00
27492;DHT22;14927;51.210;6.838;2023-07-20T02:59:42;22.20;57.00
27492;DHT22;14927;51.210;6.838;2023-07-20T03:02:29;22.10;57.00
27492;DHT22;14927;51.210;6.838;2023-07-20T03:05:14;22.10;57.20
27492;DHT22;14927;51.210;6.838;2023-07-20T03:08:00;22.10;57.10
27492;DHT22;14927;51.210;6.838;2023-07-20T03:10:46;21.90;57.00
27492;DHT22;14927;51.210;6.838;2023-07-20T03:13:31;22.10;57.10
27492;DHT22;14927;51.210;6.838;2023-07-20T03:16:18;22.10;57.20
27492;DHT22;14927;51.210;6.838;2023-07-20T03:19:03;21.90;57.20
27492;DHT22;14927;51.210;6.838;2023-07-20T03:21:48;22.00;57.30
27492;DHT22;14927;51.210;6.838;2023-07-20T03:24:33;22.00;57.20
27492;DHT22;14927;51.210;6.838;2023-07-20T03:27:18;22.00;57.30
27492;DHT22;14927;51.210;6.838;2023-07-20T03:30:03;21.90;57.40
27492;DHT22;14927;51.210;6.838;2023-07-20T03:32:50;21.90;57.50
27492;DHT22;14927;51.210;6.838;2023-07-20T03:35:34;21.90;57.60
27492;DHT22;14927;51.210;6.838;2023-07-20T03:38:19;21.90;57.70
27492;DHT22;14927;51.210;6.838;2023-07-20T03:41:06;21.90;57.90
27492;DHT22;14927;51.210;6.838;2023-07-20T03:43:51;21.80;58.00
27492;DHT22;14927;51.210;6.838;2023-07-20T03:46:36;21.80;58.00
27492;DHT22;14927;51.210;6.838;2023-07-20T03:49:20;21.80;58.10
27492;DHT22;14927;51.210;6.838;2023-07-20T03:52:05;21.80;58.20
27492;DHT22;14927;51.210;6.838;2023-07-20T03:54:50;21.80;58.20
27492;DHT22;14927;51.210;6.838;2023-07-20T03:57:37;21.80;58.30
27492;DHT22;14927;51.210;6.838;2023-07-20T04:00:22;21.80;58.30
27492;DHT22;14927;51.210;6.838;2023-07-20T04:03:07;21.70;58.30
27492;DHT22;14927;51.210;6.838;2023-07-20T04:05:54;21.70;58.40
27492;DHT22;14927;51.210;6.838;2023-07-20T04:08:42;21.70;58.50
27492;DHT22;14927;51.210;6.838;2023-07-20T04:11:26;21.70;58.50
27492;DHT22;14927;51.210;6.838;2023-07-20T04:14:11;21.70;58.50
27492;DHT22;14927;51.210;6.838;2023-07-20T04:16:56;21.70;58.60
27492;DHT22;14927;51.210;6.838;2023-07-20T04:19:40;21.70;58.70
27492;DHT22;14927;51.210;6.838;2023-07-20T04:22:25;21.70;58.70
27492;DHT22;14927;51.210;6.838;2023-07-20T04:25:11;21.70;58.80
27492;DHT22;14927;51.210;6.838;2023-07-20T04:27:55;21.70;59.00
27492;DHT22;14927;51.210;6.838;2023-07-20T04:30:40;21.70;58.90
27492;DHT22;14927;51.210;6.838;2023-07-20T04:33:25;21.40;58.80
27492;DHT22;14927;51.210;6.838;2023-07-20T04:36:13;21.70;59.10
27492;DHT22;14927;51.210;6.838;2023-07-20T04:39:00;21.60;59.00
27492;DHT22;14927;51.210;6.838;2023-07-20T04:41:44;21.60;59.20
27492;DHT22;14927;51.210;6.838;2023-07-20T04:44:29;21.60;59.30
27492;DHT22;14927;51.210;6.838;2023-07-20T04:47:14;21.60;59.40
27492;DHT22;14927;51.210;6.838;2023-07-20T04:49:58;21.60;59.40
27492;DHT22;14927;51.210;6.838;2023-07-20T04:52:43;21.60;59.30
27492;DHT22;14927;51.210;6.838;2023-07-20T04:55:30;21.60;59.40
27492;DHT22;14927;51.210;6.838;2023-07-20T04:58:16;21.70;59.30
27492;DHT22;14927;51.210;6.838;2023-07-20T05:01:02;21.60;59.30
27492;DHT22;14927;51.210;6.838;2023-07-20T05:03:47;21.60;59.30
27492;DHT22;14927;51.210;6.838;2023-07-20T05:06:32;21.60;60.10
27492;DHT22;14927;51.210;6.838;2023-07-20T05:09:16;21.60;59.50
27492;DHT22;14927;51.210;6.838;2023-07-20T05:12:01;21.60;59.60
27492;DHT22;14927;51.210;6.838;2023-07-20T05:14:46;21.60;59.70
27492;DHT22;14927;51.210;6.838;2023-07-20T05:17:31;21.60;59.80
27492;DHT22;14927;51.210;6.838;2023-07-20T05:20:15;21.60;59.90
27492;DHT22;14927;51.210;6.838;2023-07-20T05:23:00;21.60;59.90
27492;DHT22;14927;51.210;6.838;2023-07-20T05:25:45;21.60;59.90
27492;DHT22;14927;51.210;6.838;2023-07-20T05:28:30;21.60;59.80
27492;DHT22;14927;51.210;6.838;2023-07-20T05:31:15;21.60;59.80
27492;DHT22;14927;51.210;6.838;2023-07-20T05:34:00;21.60;59.80
27492;DHT22;14927;51.210;6.838;2023-07-20T05:36:45;21.60;59.80
27492;DHT22;14927;51.210;6.838;2023-07-20T05:39:29;21.60;59.80
27492;DHT22;14927;51.210;6.838;2023-07-20T05:42:16;21.60;59.80
27492;DHT22;14927;51.210;6.838;2023-07-20T05:45:01;21.70;59.80
27492;DHT22;14927;51.210;6.838;2023-07-20T05:47:46;21.70;59.90
27492;DHT22;14927;51.210;6.838;2023-07-20T05:50:31;21.70;60.00
27492;DHT22;14927;51.210;6.838;2023-07-20T05:53:15;21.70;60.10
27492;DHT22;14927;51.210;6.838;2023-07-20T05:56:01;21.70;60.10
27492;DHT22;14927;51.210;6.838;2023-07-20T05:58:47;21.70;60.90
27492;DHT22;14927;51.210;6.838;2023-07-20T06:01:32;21.70;60.30
27492;DHT22;14927;51.210;6.838;2023-07-20T06:04:16;21.70;60.10
27492;DHT22;14927;51.210;6.838;2023-07-20T06:07:01;21.80;60.30
27492;DHT22;14927;51.210;6.838;2023-07-20T06:09:46;21.80;60.20
27492;DHT22;14927;51.210;6.838;2023-07-20T06:12:31;21.80;60.20
27492;DHT22;14927;51.210;6.838;2023-07-20T06:15:28;21.80;59.90
27492;DHT22;14927;51.210;6.838;2023-07-20T06:18:15;21.90;59.80
27492;DHT22;14927;51.210;6.838;2023-07-20T06:21:01;21.90;59.60
27492;DHT22;14927;51.210;6.838;2023-07-20T06:23:46;21.90;59.60
27492;DHT22;14927;51.210;6.838;2023-07-20T06:26:31;21.90;59.70
27492;DHT22;14927;51.210;6.838;2023-07-20T06:29:22;22.00;59.60
27492;DHT22;14927;51.210;6.838;2023-07-20T06:32:07;22.00;59.50
27492;DHT22;14927;51.210;6.838;2023-07-20T06:34:52;22.10;59.40
27492;DHT22;14927;51.210;6.838;2023-07-20T06:37:36;22.10;59.00
27492;DHT22;14927;51.210;6.838;2023-07-20T06:40:21;22.10;58.70
27492;DHT22;14927;51.210;6.838;2023-07-20T06:43:06;22.20;58.50
27492;DHT22;14927;51.210;6.838;2023-07-20T06:45:52;22.20;58.10
27492;DHT22;14927;51.210;6.838;2023-07-20T06:48:37;22.20;57.80
27492;DHT22;14927;51.210;6.838;2023-07-20T06:51:22;22.30;57.80
27492;DHT22;14927;51.210;6.838;2023-07-20T06:54:07;22.30;57.70
27492;DHT22;14927;51.210;6.838;2023-07-20T06:56:53;22.40;57.50
27492;DHT22;14927;51.210;6.838;2023-07-20T06:59:40;22.40;57.00
27492;DHT22;14927;51.210;6.838;2023-07-20T07:02:25;22.50;56.90
27492;DHT22;14927;51.210;6.838;2023-07-20T07:05:09;22.50;56.80
27492;DHT22;14927;51.210;6.838;2023-07-20T07:07:55;22.40;56.70
27492;DHT22;14927;51.210;6.838;2023-07-20T07:10:41;22.60;56.80
27492;DHT22;14927;51.210;6.838;2023-07-20T07:13:27;22.60;56.80
27492;DHT22;14927;51.210;6.838;2023-07-20T07:16:11;22.60;56.80
27492;DHT22;14927;51.210;6.838;2023-07-20T07:18:56;22.70;56.50
27492;DHT22;14927;51.210;6.838;2023-07-20T07:21:41;22.70;56.10
27492;DHT22;14927;51.210;6.838;2023-07-20T07:24:25;22.80;55.70
27492;DHT22;14927;51.210;6.838;2023-07-20T07:27:11;22.80;55.60
27492;DHT22;14927;51.210;6.838;2023-07-20T07:29:56;22.80;55.50
27492;DHT22;14927;51.210;6.838;2023-07-20T07:32:41;22.90;55.30
27492;DHT22;14927;51.210;6.838;2023-07-20T07:35:29;22.90;55.10
27492;DHT22;14927;51.210;6.838;2023-07-20T07:38:14;23.00;55.10
27492;DHT22;14927;51.210;6.838;2023-07-20T07:40:59;23.00;54.80
27492;DHT22;14927;51.210;6.838;2023-07-20T07:43:43;23.00;54.70
27492;DHT22;14927;51.210;6.838;2023-07-20T07:46:28;23.10;54.70
27492;DHT22;14927;51.210;6.838;2023-07-20T07:49:13;23.20;54.80
27492;DHT22;14927;51.210;6.838;2023-07-20T07:51:58;23.20;54.40
27492;DHT22;14927;51.210;6.838;2023-07-20T07:54:42;23.30;54.20
27492;DHT22;14927;51.210;6.838;2023-07-20T07:57:27;23.30;53.90
27492;DHT22;14927;51.210;6.838;2023-07-20T08:00:13;23.40;53.80
27492;DHT22;14927;51.210;6.838;2023-07-20T08:02:59;23.40;53.20
27492;DHT22;14927;51.210;6.838;2023-07-20T08:05:43;23.50;52.80
27492;DHT22;14927;51.210;6.838;2023-07-20T08:08:28;23.50;52.50
27492;DHT22;14927;51.210;6.838;2023-07-20T08:11:13;23.50;53.00
27492;DHT22;14927;51.210;6.838;2023-07-20T08:13:57;23.60;52.40
27492;DHT22;14927;51.210;6.838;2023-07-20T08:16:43;23.60;52.40
27492;DHT22;14927;51.210;6.838;2023-07-20T08:19:28;23.50;52.30
27492;DHT22;14927;51.210;6.838;2023-07-20T08:22:13;23.60;52.20
27492;DHT22;14927;51.210;6.838;2023-07-20T08:24:57;23.60;51.60
27492;DHT22;14927;51.210;6.838;2023-07-20T08:27:42;23.60;51.60
27492;DHT22;14927;51.210;6.838;2023-07-20T08:30:26;23.70;51.50
27492;DHT22;14927;51.210;6.838;2023-07-20T08:33:27;23.70;51.30
27492;DHT22;14927;51.210;6.838;2023-07-20T08:36:13;23.80;51.60
27492;DHT22;14927;51.210;6.838;2023-07-20T08:38:58;23.90;51.10
27492;DHT22;14927;51.210;6.838;2023-07-20T08:41:44;23.90;50.70
27492;DHT22;14927;51.210;6.838;2023-07-20T08:44:32;23.70;50.30
27492;DHT22;14927;51.210;6.838;2023-07-20T08:47:18;23.90;50.00
27492;DHT22;14927;51.210;6.838;2023-07-20T08:50:05;23.90;50.20
27492;DHT22;14927;51.210;6.838;2023-07-20T08:52:52;24.00;50.20
27492;DHT22;14927;51.210;6.838;2023-07-20T08:55:39;24.00;49.80
27492;DHT22;14927;51.210;6.838;2023-07-20T08:58:23;24.10;49.40
27492;DHT22;14927;51.210;6.838;2023-07-20T09:01:11;24.10;49.00
27492;DHT22;14927;51.210;6.838;2023-07-20T09:03:56;24.20;49.00
27492;DHT22;14927;51.210;6.838;2023-07-20T09:06:40;24.20;48.70
27492;DHT22;14927;51.210;6.838;2023-07-20T09:09:25;24.30;49.40
27492;DHT22;14927;51.210;6.838;2023-07-20T09:12:14;24.40;48.60
27492;DHT22;14927;51.210;6.838;2023-07-20T09:15:00;24.40;48.60
27492;DHT22;14927;51.210;6.838;2023-07-20T09:17:50;24.60;48.00
27492;DHT22;14927;51.210;6.838;2023-07-20T09:20:38;24.60;46.90
27492;DHT22;14927;51.210;6.838;2023-07-20T09:23:36;24.60;46.90
27492;DHT22;14927;51.210;6.838;2023-07-20T09:26:24;24.70;46.60
27492;DHT22;14927;51.210;6.838;2023-07-20T09:29:09;24.80;46.50
27492;DHT22;14927;51.210;6.838;2023-07-20T09:32:01;24.80;46.70
27492;DHT22;14927;51.210;6.838;2023-07-20T09:34:46;24.80;46.80
27492;DHT22;14927;51.210;6.838;2023-07-20T09:37:33;24.80;46.90
27492;DHT22;14927;51.210;6.838;2023-07-20T09:40:18;24.90;46.10
27492;DHT22;14927;51.210;6.838;2023-07-20T09:43:08;24.90;45.60
27492;DHT22;14927;51.210;6.838;2023-07-20T09:45:53;24.90;45.00
27492;DHT22;14927;51.210;6.838;2023-07-20T09:48:51;25.00;46.20
27492;DHT22;14927;51.210;6.838;2023-07-20T09:51:38;25.10;44.30
27492;DHT22;14927;51.210;6.838;2023-07-20T09:54:24;25.10;45.00
27492;DHT22;14927;51.210;6.838;2023-07-20T09:57:11;25.20;45.20
27492;DHT22;14927;51.210;6.838;2023-07-20T09:59:57;25.20;45.50
27492;DHT22;14927;51.210;6.838;2023-07-20T10:02:45;25.30;45.60
27492;DHT22;14927;51.210;6.838;2023-07-20T10:05:35;25.30;45.50
27492;DHT22;14927;51.210;6.838;2023-07-20T10:08:24;25.30;45.60
27492;DHT22;14927;51.210;6.838;2023-07-20T10:11:10;25.40;45.10
27492;DHT22;14927;51.210;6.838;2023-07-20T10:13:59;25.50;44.80
27492;DHT22;14927;51.210;6.838;2023-07-20T10:16:50;25.60;44.10
27492;DHT22;14927;51.210;6.838;2023-07-20T10:19:43;25.60;43.20
27492;DHT22;14927;51.210;6.838;2023-07-20T10:22:35;25.70;42.80
27492;DHT22;14927;51.210;6.838;2023-07-20T10:25:22;25.80;43.00
27492;DHT22;14927;51.210;6.838;2023-07-20T10:28:07;25.80;43.10
27492;DHT22;14927;51.210;6.838;2023-07-20T10:30:53;25.90;43.70
27492;DHT22;14927;51.210;6.838;2023-07-20T10:33:38;25.90;43.40
27492;DHT22;14927;51.210;6.838;2023-07-20T10:36:27;26.00;43.30
27492;DHT22;14927;51.210;6.838;2023-07-20T10:39:26;26.00;42.80
27492;DHT22;14927;51.210;6.838;2023-07-20T10:42:12;26.00;42.60
27492;DHT22;14927;51.210;6.838;2023-07-20T10:44:56;26.10;43.00
27492;DHT22;14927;51.210;6.838;2023-07-20T10:47:45;26.20;41.60
27492;DHT22;14927;51.210;6.838;2023-07-20T10:50:30;26.20;40.50
27492;DHT22;14927;51.210;6.838;2023-07-20T10:53:18;26.30;41.30
27492;DHT22;14927;51.210;6.838;2023-07-20T10:56:12;26.40;40.70
27492;DHT22;14927;51.210;6.838;2023-07-20T10:58:59;26.50;39.20
27492;DHT22;14927;51.210;6.838;2023-07-20T11:01:44;26.50;39.30
27492;DHT22;14927;51.210;6.838;2023-07-20T11:04:43;26.50;39.10
27492;DHT22;14927;51.210;6.838;2023-07-20T11:07:38;26.50;38.00
27492;DHT22;14927;51.210;6.838;2023-07-20T11:10:23;26.60;38.20
27492;DHT22;14927;51.210;6.838;2023-07-20T11:13:22;26.60;38.70
27492;DHT22;14927;51.210;6.838;2023-07-20T11:16:07;26.70;38.50
27492;DHT22;14927;51.210;6.838;2023-07-20T11:18:52;26.80;38.80
27492;DHT22;14927;51.210;6.838;2023-07-20T11:21:38;26.80;38.80
27492;DHT22;14927;51.210;6.838;2023-07-20T11:24:23;26.90;38.70
27492;DHT22;14927;51.210;6.838;2023-07-20T11:27:08;27.00;38.50
27492;DHT22;14927;51.210;6.838;2023-07-20T11:29:52;27.00;37.90
27492;DHT22;14927;51.210;6.838;2023-07-20T11:32:47;27.10;37.70
27492;DHT22;14927;51.210;6.838;2023-07-20T11:35:42;27.10;36.80
27492;DHT22;14927;51.210;6.838;2023-07-20T11:38:28;27.20;36.90
27492;DHT22;14927;51.210;6.838;2023-07-20T11:41:13;27.20;37.10
27492;DHT22;14927;51.210;6.838;2023-07-20T11:43:57;27.30;36.70
27492;DHT22;14927;51.210;6.838;2023-07-20T11:46:43;27.30;36.90
27492;DHT22;14927;51.210;6.838;2023-07-20T11:49:37;27.40;36.70
27492;DHT22;14927;51.210;6.838;2023-07-20T11:52:23;27.40;36.60
27492;DHT22;14927;51.210;6.838;2023-07-20T11:55:07;27.50;36.90
27492;DHT22;14927;51.210;6.838;2023-07-20T11:58:05;27.50;37.00
27492;DHT22;14927;51.210;6.838;2023-07-20T12:00:50;27.50;35.90
27492;DHT22;14927;51.210;6.838;2023-07-20T12:03:35;27.60;36.50
27492;DHT22;14927;51.210;6.838;2023-07-20T12:06:23;27.60;36.30
27492;DHT22;14927;51.210;6.838;2023-07-20T12:09:14;27.70;36.30
27492;DHT22;14927;51.210;6.838;2023-07-20T12:12:09;27.70;35.60
27492;DHT22;14927;51.210;6.838;2023-07-20T12:15:13;27.80;35.00
27492;DHT22;14927;51.210;6.838;2023-07-20T12:18:00;27.80;35.00
27492;DHT22;14927;51.210;6.838;2023-07-20T12:20:48;27.80;35.40
27492;DHT22;14927;51.210;6.838;2023-07-20T12:23:40;27.80;35.20
27492;DHT22;14927;51.210;6.838;2023-07-20T12:26:26;27.80;34.10
27492;DHT22;14927;51.210;6.838;2023-07-20T12:29:13;27.80;34.60
27492;DHT22;14927;51.210;6.838;2023-07-20T12:31:57;27.80;35.10
27492;DHT22;14927;51.210;6.838;2023-07-20T12:34:42;27.90;34.50
27492;DHT22;14927;51.210;6.838;2023-07-20T12:37:27;28.00;34.40
27492;DHT22;14927;51.210;6.838;2023-07-20T12:40:11;28.10;34.50
27492;DHT22;14927;51.210;6.838;2023-07-20T12:42:57;28.20;34.00
27492;DHT22;14927;51.210;6.838;2023-07-20T12:45:43;28.30;33.70
27492;DHT22;14927;51.210;6.838;2023-07-20T12:48:36;28.50;33.50
27492;DHT22;14927;51.210;6.838;2023-07-20T12:51:29;28.60;33.10
27492;DHT22;14927;51.210;6.838;2023-07-20T12:54:30;28.50;32.70
27492;DHT22;14927;51.210;6.838;2023-07-20T12:57:38;29.00;32.50
27492;DHT22;14927;51.210;6.838;2023-07-20T13:00:39;28.70;32.10
27492;DHT22;14927;51.210;6.838;2023-07-20T13:03:45;29.00;32.50
27492;DHT22;14927;51.210;6.838;2023-07-20T13:06:39;29.10;32.00
27492;DHT22;14927;51.210;6.838;2023-07-20T13:10:10;29.20;32.10
27492;DHT22;14927;51.210;6.838;2023-07-20T13:12:59;29.30;31.80
27492;DHT22;14927;51.210;6.838;2023-07-20T13:16:00;29.40;32.70
27492;DHT22;14927;51.210;6.838;2023-07-20T13:19:04;29.40;32.10
27492;DHT22;14927;51.210;6.838;2023-07-20T13:22:18;29.60;32.20
27492;DHT22;14927;51.210;6.838;2023-07-20T13:25:12;29.60;32.00
27492;DHT22;14927;51.210;6.838;2023-07-20T13:27:59;29.50;31.20
27492;DHT22;14927;51.210;6.838;2023-07-20T13:31:21;29.70;33.00
27492;DHT22;14927;51.210;6.838;2023-07-20T13:34:18;29.70;31.30
27492;DHT22;14927;51.210;6.838;2023-07-20T13:37:16;29.70;31.30
27492;DHT22;14927;51.210;6.838;2023-07-20T13:40:42;29.60;31.40
27492;DHT22;14927;51.210;6.838;2023-07-20T13:43:59;29.60;31.60
27492;DHT22;14927;51.210;6.838;2023-07-20T13:46:53;29.50;31.70
27492;DHT22;14927;51.210;6.838;2023-07-20T13:49:43;29.70;31.60
27492;DHT22;14927;51.210;6.838;2023-07-20T13:52:38;29.50;31.40
27492;DHT22;14927;51.210;6.838;2023-07-20T13:55:27;29.40;31.30
27492;DHT22;14927;51.210;6.838;2023-07-20T13:58:45;29.40;32.30
27492;DHT22;14927;51.210;6.838;2023-07-20T14:01:47;29.00;31.40
27492;DHT22;14927;51.210;6.838;2023-07-20T14:08:43;29.10;31.60
27492;DHT22;14927;51.210;6.838;2023-07-20T14:11:50;29.00;31.90
27492;DHT22;14927;51.210;6.838;2023-07-20T14:15:01;28.90;31.70
27492;DHT22;14927;51.210;6.838;2023-07-20T14:17:57;28.90;32.00
27492;DHT22;14927;51.210;6.838;2023-07-20T14:20:55;28.80;31.80
27492;DHT22;14927;51.210;6.838;2023-07-20T14:23:53;28.70;32.10
27492;DHT22;14927;51.210;6.838;2023-07-20T14:26:51;28.70;32.20
27492;DHT22;14927;51.210;6.838;2023-07-20T14:30:04;28.60;32.30
27492;DHT22;14927;51.210;6.838;2023-07-20T14:33:00;28.50;32.20
27492;DHT22;14927;51.210;6.838;2023-07-20T14:35:50;28.60;32.80
27492;DHT22;14927;51.210;6.838;2023-07-20T14:38:40;28.40;33.10
27492;DHT22;14927;51.210;6.838;2023-07-20T14:41:41;28.20;32.80
27492;DHT22;14927;51.210;6.838;2023-07-20T14:44:33;28.50;32.70
27492;DHT22;14927;51.210;6.838;2023-07-20T14:47:54;28.50;32.80
27492;DHT22;14927;51.210;6.838;2023-07-20T14:50:52;28.40;33.10
27492;DHT22;14927;51.210;6.838;2023-07-20T14:54:03;28.50;32.80
27492;DHT22;14927;51.210;6.838;2023-07-20T14:57:23;28.50;32.30
27492;DHT22;14927;51.210;6.838;2023-07-20T15:00:18;28.50;32.30
27492;DHT22;14927;51.210;6.838;2023-07-20T15:03:07;28.50;32.30
27492;DHT22;14927;51.210;6.838;2023-07-20T15:05:57;28.50;32.50
27492;DHT22;14927;51.210;6.838;2023-07-20T15:09:02;28.50;32.50
27492;DHT22;14927;51.210;6.838;2023-07-20T15:12:00;28.60;32.90
27492;DHT22;14927;51.210;6.838;2023-07-20T15:15:10;28.60;32.70
27492;DHT22;14927;51.210;6.838;2023-07-20T15:18:04;28.50;32.30
27492;DHT22;14927;51.210;6.838;2023-07-20T15:20:53;28.60;32.30
27492;DHT22;14927;51.210;6.838;2023-07-20T15:24:38;28.60;32.00
27492;DHT22;14927;51.210;6.838;2023-07-20T15:27:58;28.60;31.80
27492;DHT22;14927;51.210;6.838;2023-07-20T15:31:03;28.60;32.20
27492;DHT22;14927;51.210;6.838;2023-07-20T15:33:57;28.60;32.10
27492;DHT22;14927;51.210;6.838;2023-07-20T15:37:14;28.50;32.10
27492;DHT22;14927;51.210;6.838;2023-07-20T15:40:40;28.30;31.80
27492;DHT22;14927;51.210;6.838;2023-07-20T15:43:57;28.50;32.20
27492;DHT22;14927;51.210;6.838;2023-07-20T15:50:21;28.50;32.40
27492;DHT22;14927;51.210;6.838;2023-07-20T15:53:15;28.30;31.90
27492;DHT22;14927;51.210;6.838;2023-07-20T15:59:50;28.40;31.70
27492;DHT22;14927;51.210;6.838;2023-07-20T16:02:53;28.40;32.80
27492;DHT22;14927;51.210;6.838;2023-07-20T16:05:50;28.50;31.70
27492;DHT22;14927;51.210;6.838;2023-07-20T16:09:07;28.30;31.50
27492;DHT22;14927;51.210;6.838;2023-07-20T16:11:58;28.50;31.40
27492;DHT22;14927;51.210;6.838;2023-07-20T16:15:15;28.20;31.20
27492;DHT22;14927;51.210;6.838;2023-07-20T16:18:24;28.50;31.10
27492;DHT22;14927;51.210;6.838;2023-07-20T16:21:12;28.50;31.10
27492;DHT22;14927;51.210;6.838;2023-07-20T16:24:15;28.40;30.90
27492;DHT22;14927;51.210;6.838;2023-07-20T16:27:14;28.60;30.90
27492;DHT22;14927;51.210;6.838;2023-07-20T16:30:15;28.70;30.70
27492;DHT22;14927;51.210;6.838;2023-07-20T16:33:38;28.50;30.30
27492;DHT22;14927;51.210;6.838;2023-07-20T16:36:41;28.80;30.10
27492;DHT22;14927;51.210;6.838;2023-07-20T16:39:26;28.80;29.90
27492;DHT22;14927;51.210;6.838;2023-07-20T16:42:51;28.80;31.20
27492;DHT22;14927;51.210;6.838;2023-07-20T16:45:49;28.80;30.10
27492;DHT22;14927;51.210;6.838;2023-07-20T16:52:25;28.80;29.90
27492;DHT22;14927;51.210;6.838;2023-07-20T16:56:30;28.80;30.30
27492;DHT22;14927;51.210;6.838;2023-07-20T17:00:02;28.80;30.40
27492;DHT22;14927;51.210;6.838;2023-07-20T17:03:46;28.70;30.30
27492;DHT22;14927;51.210;6.838;2023-07-20T17:07:01;28.70;30.90
27492;DHT22;14927;51.210;6.838;2023-07-20T17:13:08;28.60;30.80
27492;DHT22;14927;51.210;6.838;2023-07-20T17:16:07;28.60;30.70
27492;DHT22;14927;51.210;6.838;2023-07-20T17:18:54;28.70;30.40
27492;DHT22;14927;51.210;6.838;2023-07-20T17:21:47;28.60;30.40
27492;DHT22;14927;51.210;6.838;2023-07-20T17:24:49;28.70;30.70
27492;DHT22;14927;51.210;6.838;2023-07-20T17:27:41;28.60;30.40
27492;DHT22;14927;51.210;6.838;2023-07-20T17:30:59;28.60;30.40
27492;DHT22;14927;51.210;6.838;2023-07-20T17:34:02;28.60;30.60
27492;DHT22;14927;51.210;6.838;2023-07-20T17:37:36;28.60;30.60
27492;DHT22;14927;51.210;6.838;2023-07-20T17:40:33;28.50;30.60
27492;DHT22;14927;51.210;6.838;2023-07-20T17:43:38;28.50;30.50
27492;DHT22;14927;51.210;6.838;2023-07-20T17:46:49;28.40;31.00
27492;DHT22;14927;51.210;6.838;2023-07-20T17:50:04;28.40;31.00
27492;DHT22;14927;51.210;6.838;2023-07-20T17:53:03;28.40;31.40
27492;DHT22;14927;51.210;6.838;2023-07-20T17:56:02;28.30;31.30
27492;DHT22;14927;51.210;6.838;2023-07-20T17:58:47;28.10;31.40
27492;DHT22;14927;51.210;6.838;2023-07-20T18:01:32;28.30;31.10
27492;DHT22;14927;51.210;6.838;2023-07-20T18:04:17;28.10;30.90
27492;DHT22;14927;51.210;6.838;2023-07-20T18:07:01;28.30;31.10
27492;DHT22;14927;51.210;6.838;2023-07-20T18:09:46;28.20;31.50
27492;DHT22;14927;51.210;6.838;2023-07-20T18:12:31;28.20;31.70
27492;DHT22;14927;51.210;6.838;2023-07-20T18:15:16;28.10;31.60
27492;DHT22;14927;51.210;6.838;2023-07-20T18:18:01;28.10;32.00
27492;DHT22;14927;51.210;6.838;2023-07-20T18:20:46;28.10;32.30